首页
METAR-TAF:

METAR-TAF

机场 :

費耶特維爾, 北卡罗来纳州, 美国

纬度: 34-59-22N, 经度: 078-52-48W, 海拔: 57米

当前天气观测

该预报发布于53分钟前的09:53 UTC
风速21节,风向,有时为27节阵风
温度 11°C
湿度 40%
气压 1017 hPa
能見度: 16.1公里
天空无云

METAR: KFAY 210953Z 35021G27KT 10SM CLR 11/M02 A3003 RMK AO2 PK WND 33031/0932 PRESRR SLP164 T01111017

时间: 06:46 (10:46 UTC)

预报

该预报发布于5小时和16分钟前的05:30 UTC
预报有效从21日的 06点(UTC)到 22日的 06点(UTC)
风速11节,风向西北,有时为19节阵风
能見度: 10公里
天空无云
从 21日的 0800点(UTC)
风速12节,风向北转西北,有时为26节阵风
能見度: 10公里
天空无云
从 21日的 1900点(UTC)
风速10节,风向,有时为19节阵风
能見度: 10公里
天空无云
从 21日的 2200点(UTC)
风速8节,风向
能見度: 10公里
天空无云

TAF: KFAY 210530Z 2106/2206 31011G19KT P6SM SKC FM210800 33012G26KT P6SM SKC FM211900 35010G19KT P6SM SKC FM212200 35008KT P6SM SKC

超过4000个机场的气象观测和天气预报(METAR&TAF报告)。

可查询的气象台以黄色和红色小点在地图上表示。

将鼠标移到小点上方,可查看气象台名称。

然后点击查看天气观测和预报。

如需切换地图:点击带黑十字的绿色按钮放大地图;点击带横线的绿色按钮缩小地图;或者点击绿色箭头查看邻近地区的地图。


METAR-TAF: